.
WxDataArchive / Data Records for 2013-11-16
2013-11-15 November 2013 2013-11-17

Data Records for Saturday, 16 November 2013

Time	Temp	Chill	HIndex	Humid	Dewpt	 Wind 	HiWind	WindDir	Rain 	Barom 
-----	----	-----	------	-----	-----	------	------	-------	-----	----- 
00:00	38.6	38.6	38.6	74	31.0	0	1	248	0.00	30.062 
00:05	38.6	38.6	38.6	74	31.0	0	0	---	0.00	30.062 
00:10	38.8	38.8	38.8	74	31.2	0	1	248	0.00	30.062 
00:15	38.6	38.6	38.6	74	31.0	0	0	---	0.00	30.058 
00:20	38.6	38.6	38.6	74	31.0	0	0	---	0.00	30.058 
00:25	38.3	38.3	38.3	75	31.1	0	0	---	0.00	30.058 
00:30	38.3	38.3	38.3	76	31.4	0	0	---	0.00	30.053 
00:35	38.3	38.3	38.3	77	31.7	0	1	248	0.00	30.053 
00:40	38.5	38.5	38.5	77	31.9	0	1	248	0.00	30.053 
00:45	38.6	38.6	38.6	77	32.0	0	0	---	0.00	30.052 
00:50	38.6	38.6	38.6	77	32.0	0	0	---	0.00	30.052 
00:55	38.6	38.6	38.6	78	32.3	0	0	---	0.00	30.052 
01:00	38.6	38.6	38.6	78	32.3	0	1	248	0.00	30.051 
01:05	38.8	38.8	38.8	79	32.9	0	1	248	0.00	30.051 
01:10	38.9	38.9	38.9	79	33.0	0	0	---	0.00	30.051 
01:15	38.9	38.9	38.9	80	33.3	0	0	---	0.00	30.048 
01:20	39.1	39.1	39.1	80	33.5	0	0	---	0.00	30.048 
01:25	39.3	39.3	39.3	81	34.0	0	1	248	0.00	30.048 
01:30	39.3	39.3	39.3	81	34.0	0	1	248	0.00	30.048 
01:35	39.3	39.3	39.3	81	34.0	0	1	248	0.00	30.048 
01:40	39.3	39.3	39.3	81	34.0	0	1	248	0.00	30.048 
01:45	39.3	39.3	39.3	82	34.3	0	0	---	0.00	30.047 
01:50	39.3	39.3	39.3	82	34.3	0	1	248	0.00	30.047 
01:55	39.3	39.3	39.3	83	34.6	0	0	---	0.00	30.047 
02:00	39.3	39.3	39.3	83	34.6	0	0	---	0.00	30.047 
02:05	39.3	39.3	39.3	83	34.6	0	0	---	0.00	30.047 
02:10	39.2	39.2	39.2	83	34.5	0	0	---	0.00	30.047 
02:15	39.2	39.2	39.2	84	34.8	0	1	248	0.00	30.047 
02:20	39.2	39.2	39.2	84	34.8	0	1	248	0.00	30.047 
02:25	39.3	39.3	39.3	84	34.9	0	0	---	0.00	30.047 
02:30	39.3	39.3	39.3	84	34.9	0	0	---	0.00	30.048 
02:35	39.3	39.3	39.3	84	34.9	0	0	---	0.00	30.048 
02:40	39.3	39.3	39.3	84	34.9	0	1	248	0.00	30.048 
02:45	39.2	39.2	39.2	84	34.8	0	0	---	0.00	30.051 
02:50	39.1	39.1	39.1	84	34.7	0	0	---	0.00	30.051 
02:55	38.9	38.9	38.9	85	34.8	0	0	---	0.00	30.051 
03:00	38.9	38.9	38.9	85	34.8	0	0	---	0.00	30.049 
03:05	38.9	38.9	38.9	86	35.1	0	0	---	0.00	30.049 
03:10	38.9	38.9	38.9	86	35.1	0	1	248	0.00	30.049 
03:15	39.2	39.2	39.2	87	35.7	0	1	248	0.00	30.048 
03:20	39.3	39.3	39.3	87	35.8	0	0	---	0.00	30.048 
03:25	39.5	39.5	39.5	87	36.0	0	0	---	0.00	30.048 
03:30	39.8	39.8	39.8	88	36.5	0	0	---	0.00	30.048 
03:35	40.1	40.1	40.1	88	36.8	0	0	---	0.00	30.048 
03:40	40.3	40.3	40.3	88	37.0	0	1	248	0.00	30.048 
03:45	40.6	40.6	40.6	88	37.3	0	1	248	0.00	30.046 
03:50	40.6	40.6	40.6	87	37.0	0	1	248	0.00	30.046 
03:55	40.8	40.8	40.8	88	37.5	0	1	248	0.00	30.046 
04:00	41.1	41.1	41.1	88	37.8	0	1	248	0.00	30.048 
04:05	41.5	41.5	41.5	88	38.2	0	2	248	0.00	30.048 
04:10	41.6	41.6	41.6	88	38.3	0	1	248	0.00	30.048 
04:15	41.8	41.8	41.8	88	38.5	0	1	248	0.00	30.044 
04:20	41.9	41.9	41.9	88	38.6	0	2	248	0.00	30.044 
04:25	41.9	41.9	41.9	88	38.6	0	1	248	0.00	30.044 
04:30	41.8	41.8	41.8	88	38.5	0	1	248	0.00	30.044 
04:35	41.6	41.6	41.6	87	38.0	0	1	248	0.00	30.044 
04:40	41.5	41.5	41.5	87	37.9	0	1	248	0.00	30.044 
04:45	41.2	41.2	41.2	87	37.6	0	0	---	0.00	30.051 
04:50	40.9	40.9	40.9	87	37.3	0	1	248	0.00	30.051 
04:55	40.8	40.8	40.8	87	37.2	0	1	248	0.00	30.051 
05:00	40.5	40.5	40.5	88	37.2	0	0	---	0.00	30.053 
05:05	40.2	40.2	40.2	88	36.9	0	0	---	0.00	30.053 
05:10	39.9	39.9	39.9	88	36.6	0	1	248	0.00	30.053 
05:15	39.8	39.8	39.8	89	36.8	0	0	---	0.00	30.047 
05:20	39.8	39.8	39.8	89	36.8	0	1	248	0.00	30.047 
05:25	39.9	39.9	39.9	90	37.2	0	0	---	0.00	30.047 
05:30	40.1	40.1	40.1	90	37.4	0	0	---	0.00	30.049 
05:35	40.2	40.2	40.2	90	37.5	0	1	248	0.00	30.049 
05:40	40.3	40.3	40.3	90	37.6	0	1	248	0.00	30.049 
05:45	40.5	40.5	40.5	90	37.8	0	1	248	0.00	30.043 
05:50	40.6	40.6	40.6	91	38.2	0	1	248	0.00	30.043 
05:55	40.8	40.8	40.8	91	38.4	0	1	248	0.00	30.043 
06:00	40.9	40.9	40.9	91	38.5	0	1	248	0.00	30.045 
06:05	41.1	41.1	41.1	91	38.7	0	1	248	0.00	30.045 
06:10	41.1	41.1	41.1	91	38.7	0	0	---	0.00	30.045 
06:15	41.1	41.1	41.1	91	38.7	0	0	---	0.00	30.050 
06:20	41.2	41.2	41.2	91	38.8	0	0	---	0.00	30.050 
06:25	41.3	41.3	41.3	91	38.9	0	1	248	0.00	30.050 
06:30	41.5	41.5	41.5	91	39.1	0	1	248	0.00	30.047 
06:35	41.5	41.5	41.5	91	39.1	0	0	---	0.00	30.047 
06:40	41.6	41.6	41.6	91	39.2	0	1	248	0.00	30.047 
06:45	41.8	41.8	41.8	90	39.1	0	1	248	0.00	30.048 
06:50	41.8	41.8	41.8	90	39.1	0	0	---	0.00	30.048 
06:55	41.9	41.9	41.9	91	39.5	0	1	248	0.00	30.048 
07:00	42.2	42.2	42.2	91	39.8	0	1	248	0.00	30.046 
07:05	42.5	42.5	42.5	91	40.1	0	1	248	0.00	30.046 
07:10	42.9	42.9	42.9	91	40.5	0	1	248	0.00	30.046 
07:15	43.5	43.5	43.5	90	40.8	0	2	248	0.00	30.051 
07:20	43.8	43.8	43.8	90	41.1	1	4	248	0.00	30.051 
07:25	44.2	44.2	44.2	89	41.2	1	5	112	0.00	30.051 
07:30	44.6	44.6	44.6	88	41.3	0	3	112	0.00	30.050 
07:35	44.8	44.8	44.8	88	41.5	0	3	112	0.00	30.050 
07:40	45.1	45.1	45.1	88	41.8	1	3	135	0.00	30.050 
07:45	45.2	45.2	45.2	87	41.6	1	3	112	0.00	30.055 
07:50	45.4	45.4	45.4	87	41.8	1	4	112	0.00	30.055 
07:55	45.5	45.5	45.5	87	41.9	0	2	135	0.00	30.055 
08:00	45.8	45.8	45.8	87	42.2	0	2	158	0.00	30.053 
08:05	46.0	46.0	46.0	87	42.4	0	2	135	0.00	30.053 
08:10	46.1	46.1	46.1	87	42.4	1	5	90	0.00	30.053 
08:15	46.2	46.2	46.2	86	42.2	0	2	112	0.00	30.050 
08:20	46.2	46.2	46.2	86	42.2	0	4	90	0.00	30.050 
08:25	46.4	46.4	46.4	86	42.4	1	5	90	0.00	30.050 
08:30	46.4	46.4	46.4	86	42.4	1	3	90	0.00	30.048 
08:35	46.4	46.4	46.4	86	42.4	1	3	112	0.00	30.048 
08:40	46.4	46.4	46.4	86	42.4	0	3	112	0.00	30.048 
08:45	46.4	46.4	46.4	86	42.4	1	3	135	0.00	30.053 
08:50	46.4	46.4	46.4	86	42.4	1	4	90	0.00	30.053 
08:55	46.4	46.4	46.4	87	42.7	1	4	112	0.00	30.053 
09:00	46.4	46.4	46.4	87	42.7	0	1	112	0.00	30.043 
09:05	46.5	46.5	46.5	87	42.8	0	2	90	0.00	30.043 
09:10	46.5	46.5	46.5	87	42.8	0	3	90	0.00	30.043 
09:15	46.7	46.7	46.7	87	43.0	1	3	112	0.00	30.041 
09:20	46.8	46.8	46.8	88	43.4	0	2	135	0.00	30.041 
09:25	47.0	47.0	47.0	88	43.6	0	3	112	0.00	30.041 
09:30	47.1	47.1	47.1	88	43.7	1	3	135	0.00	30.043 
09:35	47.3	47.3	47.3	88	43.9	1	4	112	0.00	30.043 
09:40	47.6	47.6	47.6	88	44.2	1	9	225	0.00	30.043 
09:45	47.9	47.9	47.9	88	44.5	1	4	112	0.00	30.046 
09:50	48.0	48.0	48.0	88	44.6	1	4	135	0.00	30.046 
09:55	48.2	48.2	48.2	87	44.5	2	5	90	0.00	30.046 
10:00	48.5	48.5	48.5	87	44.8	1	3	270	0.00	30.035 
10:05	48.6	48.6	48.6	87	44.9	1	4	90	0.00	30.035 
10:10	48.8	48.8	48.8	87	45.1	1	5	135	0.00	30.035 
10:15	48.8	48.8	48.8	87	45.1	1	4	112	0.00	30.032 
10:20	49.1	49.1	49.1	87	45.4	1	4	112	0.00	30.032 
10:25	49.2	49.2	49.2	87	45.5	1	3	112	0.00	30.032 
10:30	49.4	49.4	49.4	86	45.4	1	6	135	0.00	30.038 
10:35	49.5	49.5	49.5	86	45.5	2	7	90	0.00	30.038 
10:40	49.5	49.5	49.5	86	45.5	1	2	68	0.00	30.038 
10:45	49.6	49.6	49.6	86	45.6	1	4	112	0.00	30.034 
10:50	49.6	49.6	49.6	86	45.6	1	4	90	0.00	30.034 
10:55	49.8	49.8	49.8	86	45.8	1	4	90	0.00	30.034 
11:00	49.9	49.9	49.9	86	45.9	2	6	112	0.00	30.034 
11:05	50.1	50.1	50.1	87	46.4	3	9	90	0.00	30.034 
11:10	50.2	50.2	50.2	87	46.5	2	6	90	0.00	30.034 
11:15	50.4	50.4	50.4	87	46.7	2	5	112	0.00	30.023 
11:20	50.7	50.7	50.7	86	46.7	2	5	68	0.00	30.023 
11:25	51.0	51.0	51.0	86	47.0	2	7	90	0.00	30.023 
11:30	51.1	51.1	51.1	86	47.1	2	6	90	0.00	30.016 
11:35	51.4	51.4	51.4	85	47.0	2	9	90	0.00	30.016 
11:40	51.6	51.6	51.6	85	47.2	2	9	90	0.00	30.016 
11:45	51.7	51.7	51.7	85	47.3	1	5	112	0.00	30.006 
11:50	51.9	51.9	51.9	84	47.2	4	11	90	0.00	30.006 
11:55	52.0	52.0	52.0	84	47.3	2	5	90	0.00	30.006 
12:00	52.2	52.2	52.2	84	47.5	1	5	90	0.00	30.001 
12:05	52.3	52.3	52.3	84	47.6	2	4	112	0.00	30.001 
12:10	52.5	52.5	52.5	83	47.5	2	8	90	0.00	30.001 
12:15	52.5	52.5	52.5	83	47.5	1	5	90	0.00	29.988 
12:20	52.6	52.6	52.6	83	47.6	2	10	90	0.00	29.988 
12:25	52.5	52.5	52.5	83	47.5	2	6	90	0.00	29.988 
12:30	52.6	52.6	52.6	83	47.6	2	7	90	0.00	29.979 
12:35	52.8	52.8	52.8	83	47.8	1	5	68	0.00	29.979 
12:40	52.9	52.9	52.9	82	47.6	1	4	90	0.00	29.979 
12:45	53.1	53.1	53.1	82	47.8	1	4	112	0.00	29.979 
12:50	53.1	53.1	53.1	81	47.4	1	4	90	0.00	29.979 
12:55	53.2	53.2	53.2	81	47.5	1	4	90	0.00	29.979 
13:00	53.3	53.3	53.3	81	47.6	2	7	90	0.00	29.965 
13:05	53.5	53.5	53.5	81	47.8	1	7	45	0.00	29.965 
13:10	53.5	53.5	53.5	80	47.5	1	4	112	0.00	29.965 
13:15	53.6	53.6	53.6	80	47.6	2	7	90	0.00	29.956 
13:20	53.6	53.6	53.6	80	47.6	2	7	90	0.00	29.956 
13:25	53.6	53.6	53.6	80	47.6	2	9	90	0.00	29.956 
13:30	53.6	53.6	53.6	80	47.6	3	6	90	0.00	29.947 
13:35	53.5	53.5	53.5	80	47.5	4	13	90	0.00	29.947 
13:40	53.3	53.3	53.3	81	47.6	2	6	45	0.00	29.947 
13:45	53.2	53.2	53.2	81	47.5	3	7	90	0.00	29.943 
13:50	53.2	53.2	53.2	81	47.5	2	5	90	0.00	29.943 
13:55	53.3	53.3	53.3	81	47.6	3	8	90	0.00	29.943 
14:00	53.3	53.3	53.3	81	47.6	2	6	90	0.00	29.934 
14:05	53.2	53.2	53.2	81	47.5	2	7	112	0.00	29.934 
14:10	53.3	53.3	53.3	81	47.6	2	6	90	0.00	29.934 
14:15	53.5	53.5	53.5	81	47.8	2	7	90	0.00	29.928 
14:20	53.5	53.5	53.5	80	47.5	2	10	90	0.00	29.928 
14:25	53.5	53.5	53.5	80	47.5	2	10	112	0.00	29.928 
14:30	53.5	53.5	53.5	80	47.5	2	4	90	0.00	29.919 
14:35	53.3	53.3	53.3	81	47.6	3	7	90	0.00	29.919 
14:40	53.3	53.3	53.3	81	47.6	2	6	90	0.00	29.919 
14:45	53.2	53.2	53.2	81	47.5	2	6	112	0.00	29.916 
14:50	53.2	53.2	53.2	81	47.5	3	13	90	0.00	29.916 
14:55	53.2	53.2	53.2	81	47.5	1	5	90	0.00	29.916 
15:00	53.5	53.5	53.5	81	47.8	1	3	112	0.00	29.916 
15:05	53.5	53.5	53.5	81	47.8	1	6	112	0.00	29.916 
15:10	53.6	53.6	53.6	81	47.9	1	4	112	0.00	29.916 
15:15	53.6	53.6	53.6	81	47.9	1	5	112	0.00	29.910 
15:20	53.8	53.8	53.8	81	48.1	2	5	90	0.00	29.910 
15:25	53.9	53.9	53.9	81	48.2	3	9	90	0.00	29.910 
15:30	54.1	54.1	54.1	80	48.1	1	5	112	0.00	29.909 
15:35	54.2	54.2	54.2	80	48.2	2	9	90	0.00	29.909 
15:40	54.4	54.4	54.4	80	48.4	1	5	90	0.00	29.909 
15:45	54.5	54.5	54.5	80	48.5	2	4	112	0.00	29.908 
15:50	54.7	54.7	54.7	79	48.3	2	10	90	0.00	29.908 
15:55	54.5	54.5	54.5	79	48.1	4	11	90	0.00	29.908 
16:00	54.4	54.4	54.4	79	48.0	4	8	90	0.00	29.908 
16:05	54.4	54.4	54.4	80	48.4	3	7	68	0.00	29.908 
16:10	54.4	54.4	54.4	80	48.4	2	5	90	0.00	29.908 
16:15	54.4	54.4	54.4	80	48.4	2	7	90	0.00	29.900 
16:20	54.4	54.4	54.4	80	48.4	2	5	112	0.00	29.900 
16:25	54.4	54.4	54.4	80	48.4	2	6	112	0.00	29.900 
16:30	54.4	54.4	54.4	80	48.4	2	5	90	0.00	29.900 
16:35	54.2	54.2	54.2	80	48.2	2	7	112	0.00	29.900 
16:40	54.2	54.2	54.2	80	48.2	2	9	90	0.00	29.900 
16:45	54.2	54.2	54.2	81	48.5	2	9	112	0.00	29.895 
16:50	54.2	54.2	54.2	81	48.5	1	5	90	0.00	29.895 
16:55	54.1	54.1	54.1	81	48.4	3	12	112	0.00	29.895 
17:00	54.1	54.1	54.1	81	48.4	1	6	90	0.00	29.888 
17:05	53.9	53.9	53.9	81	48.2	1	5	112	0.00	29.888 
17:10	53.6	53.6	53.6	81	47.9	1	4	112	0.00	29.888 
17:15	53.5	53.5	53.5	82	48.1	1	4	135	0.00	29.893 
17:20	53.3	53.3	53.3	83	48.3	1	5	90	0.00	29.893 
17:25	53.2	53.2	53.2	83	48.2	2	6	112	0.00	29.893 
17:30	53.2	53.2	53.2	83	48.2	1	5	90	0.00	29.896 
17:35	53.2	53.2	53.2	83	48.2	2	5	90	0.00	29.896 
17:40	53.2	53.2	53.2	84	48.5	1	3	135	0.00	29.896 
17:45	53.2	53.2	53.2	84	48.5	1	6	90	0.00	29.896 
17:50	53.2	53.2	53.2	84	48.5	3	7	45	0.00	29.896 
17:55	53.3	53.3	53.3	84	48.6	2	4	90	0.00	29.896 
18:00	53.3	53.3	53.3	84	48.6	1	4	112	0.00	29.885 
18:05	53.3	53.3	53.3	84	48.6	2	5	112	0.00	29.885 
18:10	53.3	53.3	53.3	85	48.9	2	9	45	0.00	29.885 
18:15	53.3	53.3	53.3	85	48.9	1	5	135	0.00	29.872 
18:20	53.3	53.3	53.3	85	48.9	1	4	45	0.00	29.872 
18:25	53.3	53.3	53.3	85	48.9	2	5	90	0.00	29.872 
18:30	53.3	53.3	53.3	85	48.9	1	5	90	0.00	29.872 
18:35	53.5	53.5	53.5	86	49.4	1	5	45	0.00	29.872 
18:40	53.5	53.5	53.5	86	49.4	2	7	112	0.00	29.872 
18:45	53.5	53.5	53.5	86	49.4	2	6	112	0.00	29.872 
18:50	53.6	53.6	53.6	86	49.5	2	6	68	0.00	29.872 
18:55	53.6	53.6	53.6	86	49.5	2	6	90	0.00	29.872 
19:00	53.8	53.8	53.8	86	49.7	2	12	90	0.00	29.867 
19:05	54.1	54.1	54.1	86	50.0	3	7	90	0.00	29.867 
19:10	54.2	54.2	54.2	86	50.1	3	7	90	0.00	29.867 
19:15	54.4	54.4	54.4	86	50.3	3	11	90	0.00	29.855 
19:20	54.7	54.7	54.7	85	50.3	4	11	90	0.00	29.855 
19:25	54.8	54.8	54.8	85	50.4	3	11	90	0.00	29.855 
19:30	55.0	55.0	55.0	85	50.6	3	11	90	0.00	29.848 
19:35	55.1	55.1	55.1	85	50.7	3	6	112	0.00	29.848 
19:40	55.1	55.1	55.1	85	50.7	2	6	90	0.00	29.848 
19:45	55.3	55.3	55.3	85	50.9	2	7	90	0.00	29.844 
19:50	55.4	55.4	55.4	84	50.6	3	9	112	0.00	29.844 
19:55	55.6	55.6	55.6	85	51.2	2	7	90	0.00	29.844 
20:00	55.7	55.7	55.7	84	50.9	3	11	90	0.00	29.846 
20:05	55.9	55.9	55.9	84	51.1	2	9	112	0.00	29.846 
20:10	56.0	56.0	56.0	84	51.2	2	6	90	0.00	29.846 
20:15	56.2	56.2	56.2	84	51.4	3	8	90	0.00	29.839 
20:20	56.2	56.2	56.2	84	51.4	3	7	90	0.00	29.839 
20:25	56.3	56.3	56.3	84	51.5	3	10	68	0.00	29.839 
20:30	56.5	56.5	56.5	84	51.7	3	7	90	0.00	29.828 
20:35	56.6	56.6	56.6	84	51.8	4	12	90	0.00	29.828 
20:40	56.7	56.7	56.7	84	51.9	3	9	90	0.00	29.828 
20:45	56.7	56.7	56.7	84	51.9	3	7	68	0.00	29.814 
20:50	56.7	56.7	56.7	85	52.2	3	9	90	0.00	29.814 
20:55	56.9	56.9	56.9	85	52.4	3	13	90	0.00	29.814 
21:00	56.9	56.9	56.9	85	52.4	3	7	90	0.00	29.810 
21:05	57.0	57.0	57.0	85	52.5	2	7	90	0.00	29.810 
21:10	57.0	57.0	57.0	85	52.5	1	4	112	0.00	29.810 
21:15	57.0	57.0	57.0	85	52.5	2	6	112	0.00	29.807 
21:20	57.2	57.2	57.2	85	52.7	2	8	90	0.00	29.807 
21:25	57.2	57.2	57.2	86	53.0	2	7	90	0.00	29.807 
21:30	57.2	57.2	57.2	86	53.0	3	7	90	0.00	29.798 
21:35	57.3	57.3	57.3	86	53.1	2	6	90	0.00	29.798 
21:40	57.2	57.2	57.2	86	53.0	1	5	45	0.00	29.798 
21:45	57.2	57.2	57.2	87	53.4	2	12	45	0.00	29.809 
21:50	57.2	57.2	57.2	88	53.7	2	10	22	0.00	29.809 
21:55	57.0	57.0	57.0	88	53.5	1	4	68	0.01	29.809 
22:00	56.9	56.9	56.9	89	53.7	2	6	112	0.00	29.794 
22:05	56.9	56.9	56.9	89	53.7	2	4	90	0.00	29.794 
22:10	56.7	56.7	56.7	89	53.5	2	5	90	0.00	29.794 
22:15	56.6	56.6	56.6	90	53.7	1	6	45	0.00	29.794 
22:20	56.6	56.6	56.6	90	53.7	2	5	135	0.00	29.794 
22:25	56.6	56.6	56.6	90	53.7	2	5	135	0.00	29.794 
22:30	56.6	56.6	56.6	90	53.7	2	5	90	0.00	29.784 
22:35	56.7	56.7	56.7	89	53.5	2	4	90	0.00	29.784 
22:40	56.7	56.7	56.7	89	53.5	2	7	68	0.00	29.784 
22:45	56.9	56.9	56.9	89	53.7	2	6	90	0.00	29.789 
22:50	56.9	56.9	56.9	88	53.4	2	7	112	0.00	29.789 
22:55	57.0	57.0	57.0	88	53.5	3	9	90	0.00	29.789 
23:00	57.2	57.2	57.2	88	53.7	3	7	68	0.01	29.775 
23:05	57.2	57.2	57.2	88	53.7	3	11	90	0.00	29.775 
23:10	57.2	57.2	57.2	88	53.7	2	6	112	0.00	29.775 
23:15	57.2	57.2	57.2	88	53.7	2	9	68	0.00	29.790 
23:20	57.3	57.3	57.3	88	53.8	2	7	90	0.00	29.790 
23:25	57.3	57.3	57.3	89	54.1	1	5	90	0.00	29.790 
23:30	57.3	57.3	57.3	89	54.1	1	5	135	0.00	29.781 
23:35	57.3	57.3	57.3	89	54.1	1	4	90	0.00	29.781 
23:40	57.5	57.5	57.5	89	54.3	2	6	68	0.00	29.781 
23:45	57.5	57.5	57.5	89	54.3	2	5	112	0.00	29.770 
23:50	57.5	57.5	57.5	89	54.3	1	4	90	0.00	29.770 
23:55	57.5	57.5	57.5	89	54.3	2	7	112	0.01	29.770 

CoCoRaHS
IN-AL-39
A2 Web Hosting
Creative Commons License
GoDaddy
search engine by freefind advanced

loaded 2018-11-12 19:07:30 • last modified 2010-11-18 10:43:29
Privacy PolicyDisclaimer
• wx.awcolley.com is powered by PmWiki v.2002016 •
• all content (unless otherwise noted) © 2018 A W Colley